createdAt,value
2023-05-09T00:01:05.831Z,79.16
2023-05-09T00:03:34.284Z,78.40
2023-05-09T00:06:02.625Z,81.26
2023-05-09T00:08:30.771Z,80.00
2023-05-09T00:10:58.928Z,80.14
2023-05-09T00:13:27.305Z,79.52
2023-05-09T00:15:57.340Z,79.57
2023-05-09T00:18:25.517Z,80.26
2023-05-09T00:20:53.576Z,80.94
2023-05-09T00:23:21.672Z,78.93
2023-05-09T00:25:49.784Z,79.05
2023-05-09T00:28:17.877Z,80.28
2023-05-09T00:30:45.997Z,81.19
2023-05-09T00:33:14.183Z,80.64
2023-05-09T00:35:42.462Z,80.00
2023-05-09T00:38:10.614Z,80.80
2023-05-09T00:40:39.063Z,80.58
2023-05-09T00:43:07.634Z,80.89
2023-05-09T00:45:35.779Z,79.99
2023-05-09T00:48:04.359Z,78.67
2023-05-09T00:50:32.518Z,79.45
2023-05-09T00:53:01.050Z,79.42
2023-05-09T00:55:29.240Z,79.52
2023-05-09T00:57:57.389Z,79.72
2023-05-09T01:00:25.553Z,79.40
2023-05-09T01:02:55.229Z,79.76
2023-05-09T01:05:27.237Z,80.01
2023-05-09T01:08:01.631Z,79.85
2023-05-09T01:10:48.581Z,80.90
2023-05-09T01:13:48.990Z,81.42
2023-05-09T01:16:24.105Z,81.23
2023-05-09T01:19:01.314Z,81.90
2023-05-09T01:21:30.606Z,81.47
2023-05-09T01:24:17.331Z,81.49
2023-05-09T01:26:53.221Z,82.43
2023-05-09T01:29:27.250Z,81.17
2023-05-09T01:31:56.752Z,81.24
2023-05-09T01:34:26.897Z,81.48
2023-05-09T01:36:58.184Z,81.65
2023-05-09T01:39:27.613Z,81.63
2023-05-09T01:41:57.062Z,81.81
2023-05-09T01:44:25.713Z,82.04
2023-05-09T01:46:56.405Z,81.96
2023-05-09T01:49:25.371Z,81.86
2023-05-09T01:51:54.726Z,82.56
2023-05-09T01:54:26.324Z,81.26
2023-05-09T01:56:55.774Z,80.71
2023-05-09T01:59:24.027Z,81.06
2023-05-09T02:01:53.136Z,80.00
2023-05-09T02:04:22.201Z,79.83
2023-05-09T02:06:51.527Z,79.58
2023-05-09T02:09:20.324Z,80.56
2023-05-09T02:11:48.657Z,83.16
2023-05-09T02:14:16.748Z,81.99
2023-05-09T02:16:44.914Z,81.91
2023-05-09T02:19:13.051Z,80.68
2023-05-09T02:21:41.421Z,81.59
2023-05-09T02:24:09.691Z,81.86
2023-05-09T02:26:38.231Z,82.45
2023-05-09T02:29:07.545Z,82.54
2023-05-09T02:31:36.327Z,82.49
2023-05-09T02:34:05.646Z,82.50
2023-05-09T02:36:35.952Z,82.64
2023-05-09T02:39:04.231Z,82.33
2023-05-09T02:41:32.539Z,82.04
2023-05-09T02:44:00.645Z,81.52
2023-05-09T02:46:28.939Z,82.12
2023-05-09T02:48:57.087Z,82.49
2023-05-09T02:51:25.233Z,82.07
2023-05-09T02:53:53.333Z,82.19
2023-05-09T02:56:21.445Z,83.03
2023-05-09T02:58:51.515Z,82.66
2023-05-09T03:01:19.846Z,82.42
2023-05-09T03:03:48.037Z,82.51
2023-05-09T03:06:16.787Z,82.71
2023-05-09T03:08:44.870Z,82.72
2023-05-09T03:11:13.858Z,82.33
2023-05-09T03:13:42.643Z,81.49
2023-05-09T03:16:13.497Z,81.94
2023-05-09T03:18:42.537Z,81.63
2023-05-09T03:21:10.845Z,82.32
2023-05-09T03:23:39.652Z,82.53
2023-05-09T03:26:07.771Z,82.46
2023-05-09T03:28:37.860Z,81.33
2023-05-09T03:31:06.582Z,81.93
2023-05-09T03:33:34.921Z,82.68
2023-05-09T03:36:03.010Z,82.33
2023-05-09T03:38:31.087Z,83.02
2023-05-09T03:40:59.425Z,83.27
2023-05-09T03:43:27.682Z,82.09
2023-05-09T03:45:56.192Z,82.39
2023-05-09T03:48:24.673Z,82.52
2023-05-09T03:50:52.973Z,82.33
2023-05-09T03:53:21.551Z,82.36
2023-05-09T03:55:49.664Z,83.48
2023-05-09T03:58:19.476Z,83.41
2023-05-09T04:00:48.042Z,84.05
2023-05-09T04:03:18.428Z,82.93
2023-05-09T04:05:48.135Z,82.46
2023-05-09T04:08:25.376Z,83.82
2023-05-09T04:10:53.570Z,82.24
2023-05-09T04:13:21.908Z,81.37
2023-05-09T04:15:50.204Z,81.89
2023-05-09T04:18:18.470Z,82.52
2023-05-09T04:20:46.817Z,82.09
2023-05-09T04:23:15.503Z,81.75
2023-05-09T04:25:43.944Z,80.98
2023-05-09T04:28:12.068Z,80.28
2023-05-09T04:30:40.565Z,79.90
2023-05-09T04:33:08.763Z,79.44
2023-05-09T04:35:36.968Z,77.97
2023-05-09T04:38:05.134Z,77.34
2023-05-09T04:40:33.528Z,77.09
2023-05-09T04:43:01.907Z,76.62
2023-05-09T04:45:32.005Z,76.89
2023-05-09T04:48:00.926Z,77.45
2023-05-09T04:50:30.428Z,77.79
2023-05-09T04:52:58.472Z,75.57
2023-05-09T04:55:26.546Z,75.46
2023-05-09T04:57:56.387Z,76.38
2023-05-09T05:00:25.006Z,76.44
2023-05-09T05:02:53.187Z,75.98
2023-05-09T05:05:24.926Z,75.03
2023-05-09T05:07:54.390Z,75.64
2023-05-09T05:10:28.410Z,75.57
2023-05-09T05:13:02.901Z,75.69
2023-05-09T05:15:31.377Z,75.29
2023-05-09T05:17:59.667Z,75.54
2023-05-09T05:20:30.999Z,75.24
2023-05-09T05:22:59.948Z,75.47
2023-05-09T05:25:28.015Z,76.23
2023-05-09T05:27:56.667Z,75.95
2023-05-09T05:30:24.797Z,75.67
2023-05-09T05:32:52.973Z,75.55
2023-05-09T05:35:23.490Z,75.05
2023-05-09T05:37:51.787Z,74.36
2023-05-09T05:40:21.185Z,73.46
2023-05-09T05:42:49.691Z,70.30
2023-05-09T05:45:17.942Z,71.10
2023-05-09T05:47:49.181Z,71.32
2023-05-09T05:50:18.195Z,70.99
2023-05-09T05:52:46.344Z,71.18
2023-05-09T05:55:16.010Z,72.02
2023-05-09T05:57:44.541Z,71.21
2023-05-09T06:00:15.458Z,70.66
2023-05-09T06:02:48.542Z,71.05
2023-05-09T06:05:22.834Z,71.38
2023-05-09T06:07:51.610Z,71.53
2023-05-09T06:10:21.702Z,69.33
2023-05-09T06:12:50.072Z,70.13
2023-05-09T06:15:18.404Z,69.43
2023-05-09T06:17:48.020Z,69.34
2023-05-09T06:20:16.084Z,70.11
2023-05-09T06:22:45.140Z,68.45
2023-05-09T06:25:13.577Z,68.94
2023-05-09T06:27:42.157Z,69.04
2023-05-09T06:30:24.725Z,68.11
2023-05-09T06:32:55.669Z,69.07
2023-05-09T06:35:23.905Z,69.03
2023-05-09T06:37:51.962Z,67.13
2023-05-09T06:40:20.181Z,68.30
2023-05-09T06:42:48.315Z,68.10
2023-05-09T06:45:17.478Z,68.08
2023-05-09T06:47:45.970Z,67.30
2023-05-09T06:50:14.162Z,68.05
2023-05-09T06:52:42.238Z,68.18
2023-05-09T06:55:10.941Z,69.56
2023-05-09T06:57:40.686Z,69.05
2023-05-09T07:00:10.907Z,68.97
2023-05-09T07:02:42.426Z,68.40
2023-05-09T07:05:11.248Z,68.04
2023-05-09T07:07:39.507Z,68.55
2023-05-09T07:10:11.962Z,68.09
2023-05-09T07:12:40.946Z,68.04
2023-05-09T07:15:09.466Z,67.09
2023-05-09T07:17:37.594Z,66.17
2023-05-09T07:20:06.288Z,66.19
2023-05-09T07:22:36.955Z,66.16
2023-05-09T07:25:08.985Z,65.23
2023-05-09T07:27:37.439Z,66.99
2023-05-09T07:30:06.219Z,65.85
2023-05-09T07:32:34.386Z,63.24
2023-05-09T07:35:03.248Z,63.94
2023-05-09T07:37:31.867Z,64.39
2023-05-09T07:40:00.503Z,63.30
2023-05-09T07:42:30.398Z,62.84
2023-05-09T07:44:59.324Z,63.35
2023-05-09T07:47:27.426Z,61.52
2023-05-09T07:49:55.564Z,60.96
2023-05-09T07:52:23.693Z,61.18
2023-05-09T07:54:51.802Z,62.16
2023-05-09T07:57:19.903Z,62.27
2023-05-09T07:59:47.929Z,63.01
2023-05-09T08:02:16.146Z,62.04
2023-05-09T08:04:44.527Z,61.90
2023-05-09T08:07:12.659Z,60.44
2023-05-09T08:09:40.855Z,60.52
2023-05-09T08:12:08.931Z,62.14
2023-05-09T08:14:36.933Z,61.36
2023-05-09T08:17:05.020Z,61.78
2023-05-09T08:19:33.210Z,61.82
2023-05-09T08:22:01.420Z,62.66
2023-05-09T08:24:29.595Z,61.99
2023-05-09T08:26:57.655Z,61.67
2023-05-09T08:29:25.752Z,61.97
2023-05-09T08:31:53.879Z,61.31
2023-05-09T08:34:22.023Z,62.29
2023-05-09T08:36:50.221Z,61.89
2023-05-09T08:39:19.410Z,61.19
2023-05-09T08:41:47.638Z,60.98
2023-05-09T08:44:15.818Z,61.19
2023-05-09T08:46:44.667Z,59.98
2023-05-09T08:49:12.826Z,60.06
2023-05-09T08:51:41.105Z,60.47
2023-05-09T08:54:09.786Z,59.70
2023-05-09T08:56:37.910Z,58.91
2023-05-09T08:59:06.519Z,60.84
2023-05-09T09:01:37.877Z,59.77
2023-05-09T09:04:06.920Z,60.64
2023-05-09T09:06:35.520Z,62.31
2023-05-09T09:09:09.200Z,60.26
2023-05-09T09:11:38.871Z,60.50
2023-05-09T09:14:15.755Z,60.45
2023-05-09T09:16:45.156Z,60.83
2023-05-09T09:19:16.820Z,60.10
2023-05-09T09:21:47.308Z,58.95
2023-05-09T09:24:19.113Z,57.06
2023-05-09T09:26:48.411Z,58.48
2023-05-09T09:29:17.367Z,58.78
2023-05-09T09:31:46.514Z,58.95
2023-05-09T09:34:21.526Z,58.34
2023-05-09T09:36:50.378Z,58.21
2023-05-09T09:39:18.535Z,58.29
2023-05-09T09:41:46.609Z,58.12
2023-05-09T09:44:18.845Z,57.32
2023-05-09T09:46:50.890Z,59.88
2023-05-09T09:49:20.661Z,58.62
2023-05-09T09:51:56.237Z,58.84
2023-05-09T09:54:27.833Z,57.65
2023-05-09T09:56:57.170Z,58.50
2023-05-09T09:59:26.203Z,56.07
2023-05-09T10:02:07.679Z,56.23
2023-05-09T10:04:37.378Z,56.76
2023-05-09T10:07:07.416Z,55.53
2023-05-09T10:09:38.039Z,56.93
2023-05-09T10:12:06.954Z,54.02
2023-05-09T10:14:36.705Z,56.05
2023-05-09T10:17:05.722Z,53.39
2023-05-09T10:19:36.212Z,53.55
2023-05-09T10:22:10.177Z,50.15
2023-05-09T10:24:44.697Z,50.13
2023-05-09T10:27:13.393Z,51.52
2023-05-09T10:29:46.115Z,53.71
2023-05-09T10:32:40.542Z,51.35
2023-05-09T10:35:10.651Z,51.67
2023-05-09T10:37:39.055Z,53.46
2023-05-09T10:40:08.005Z,54.12
2023-05-09T10:42:36.278Z,53.47
2023-05-09T10:45:04.649Z,52.74
2023-05-09T10:47:33.381Z,53.13
2023-05-09T10:50:02.120Z,52.67
2023-05-09T10:52:36.043Z,52.10
2023-05-09T10:55:05.220Z,53.17
2023-05-09T10:57:33.436Z,54.65
2023-05-09T11:00:01.637Z,53.38
2023-05-09T11:02:31.379Z,53.51
2023-05-09T11:05:16.725Z,54.18
2023-05-09T11:07:45.170Z,55.10
2023-05-09T11:10:20.215Z,56.34
2023-05-09T11:12:57.728Z,55.51
2023-05-09T11:15:27.973Z,56.02
2023-05-09T11:18:10.719Z,55.90
2023-05-09T11:20:46.873Z,55.55
2023-05-09T11:23:21.930Z,56.19
2023-05-09T11:25:50.086Z,56.00
2023-05-09T11:28:28.445Z,54.68
2023-05-09T11:31:12.952Z,54.91
2023-05-09T11:33:42.257Z,55.86
2023-05-09T11:36:20.584Z,54.62
2023-05-09T11:38:48.776Z,55.48
2023-05-09T11:41:17.556Z,56.43
2023-05-09T11:43:45.770Z,55.50
2023-05-09T11:46:13.983Z,55.75
2023-05-09T11:48:42.400Z,54.32
2023-05-09T11:51:18.353Z,55.10
2023-05-09T11:53:49.828Z,53.78
2023-05-09T11:56:18.149Z,52.98
2023-05-09T11:58:46.949Z,53.71
2023-05-09T12:01:15.105Z,53.99
2023-05-09T12:03:46.206Z,53.34
2023-05-09T12:06:15.531Z,52.44
2023-05-09T12:08:44.255Z,53.55
2023-05-09T12:11:12.836Z,53.98
2023-05-09T12:13:50.951Z,54.09
2023-05-09T12:16:20.002Z,54.71
2023-05-09T12:18:52.718Z,53.98
2023-05-09T12:21:21.918Z,54.76
2023-05-09T12:23:51.662Z,54.30
2023-05-09T12:26:22.256Z,54.50
2023-05-09T12:28:50.856Z,55.08
2023-05-09T12:31:19.319Z,55.41
2023-05-09T12:33:47.465Z,54.76
2023-05-09T12:36:16.349Z,55.28
2023-05-09T12:38:54.466Z,56.56
2023-05-09T12:41:36.987Z,58.48
2023-05-09T12:44:07.899Z,57.91
2023-05-09T12:46:37.534Z,57.80
2023-05-09T12:49:06.026Z,56.95
2023-05-09T12:51:34.288Z,57.03
2023-05-09T12:54:05.430Z,58.34
2023-05-09T12:56:34.042Z,58.10
2023-05-09T12:59:02.117Z,57.93
2023-05-09T13:01:30.383Z,57.86
2023-05-09T13:04:02.875Z,59.14
2023-05-09T13:06:31.265Z,58.73
2023-05-09T13:09:00.555Z,57.87
2023-05-09T13:11:29.334Z,58.65
2023-05-09T13:13:57.853Z,57.72
2023-05-09T13:16:25.992Z,57.52
2023-05-09T13:18:54.164Z,58.06
2023-05-09T13:21:22.225Z,57.74
2023-05-09T13:23:51.329Z,58.75
2023-05-09T13:26:19.533Z,56.26
2023-05-09T13:28:47.696Z,55.89
2023-05-09T13:31:15.973Z,54.69
2023-05-09T13:33:44.230Z,54.05
2023-05-09T13:36:12.242Z,54.28
2023-05-09T13:38:40.968Z,53.96
2023-05-09T13:41:09.913Z,53.65
2023-05-09T13:43:39.681Z,52.01
2023-05-09T13:46:07.873Z,53.11
2023-05-09T13:48:36.028Z,52.85
2023-05-09T13:51:06.381Z,52.06
2023-05-09T13:53:35.778Z,52.52
2023-05-09T13:56:06.482Z,52.92
2023-05-09T13:58:34.596Z,52.29
2023-05-09T14:01:02.945Z,52.58
2023-05-09T14:03:31.999Z,53.20
2023-05-09T14:06:00.174Z,53.11
2023-05-09T14:08:28.319Z,51.85
2023-05-09T14:10:56.525Z,52.61
2023-05-09T14:13:25.376Z,51.55
2023-05-09T14:15:53.865Z,51.52
2023-05-09T14:18:21.907Z,51.02
2023-05-09T14:20:50.373Z,50.80
2023-05-09T14:23:18.943Z,51.82
2023-05-09T14:25:47.064Z,50.63
2023-05-09T14:28:15.242Z,52.60
2023-05-09T14:30:43.854Z,51.66
2023-05-09T14:33:12.039Z,52.75
2023-05-09T14:35:41.621Z,51.29
2023-05-09T14:38:10.105Z,53.05
2023-05-09T14:40:38.220Z,53.16
2023-05-09T14:43:06.360Z,52.88
2023-05-09T14:45:34.479Z,53.26
2023-05-09T14:48:03.689Z,54.21
2023-05-09T14:50:31.887Z,53.32
2023-05-09T14:53:01.085Z,53.28
2023-05-09T14:55:31.353Z,52.45
2023-05-09T14:57:59.644Z,51.63
2023-05-09T15:00:28.846Z,52.72
2023-05-09T15:02:57.928Z,52.29
2023-05-09T15:05:26.200Z,51.53
2023-05-09T15:07:54.271Z,50.67
2023-05-09T15:10:22.440Z,51.14
2023-05-09T15:12:50.642Z,51.06
2023-05-09T15:15:20.109Z,51.42
2023-05-09T15:17:48.276Z,51.79
2023-05-09T15:20:19.988Z,51.16
2023-05-09T15:22:49.778Z,52.58
2023-05-09T15:25:18.117Z,52.82
2023-05-09T15:27:46.268Z,52.95
2023-05-09T15:30:14.726Z,52.96
2023-05-09T15:32:43.250Z,52.86
2023-05-09T15:35:11.437Z,53.41
2023-05-09T15:37:40.587Z,53.99
2023-05-09T15:40:09.341Z,54.29
2023-05-09T15:42:37.786Z,55.51
2023-05-09T15:45:06.659Z,55.44
2023-05-09T15:47:34.942Z,56.51
2023-05-09T15:50:03.326Z,56.60
2023-05-09T15:52:31.565Z,57.83
2023-05-09T15:54:59.836Z,58.90
2023-05-09T15:57:28.002Z,58.97
2023-05-09T15:59:56.184Z,59.65
2023-05-09T16:02:24.908Z,58.66
2023-05-09T16:04:53.214Z,58.75
2023-05-09T16:07:21.297Z,60.19
2023-05-09T16:09:49.475Z,61.71
2023-05-09T16:12:17.641Z,61.82
2023-05-09T16:14:45.691Z,62.54
2023-05-09T16:17:13.797Z,62.46
2023-05-09T16:19:42.513Z,63.25
2023-05-09T16:22:10.656Z,65.32
2023-05-09T16:24:38.711Z,65.91
2023-05-09T16:27:06.898Z,64.91
2023-05-09T16:29:35.086Z,64.99
2023-05-09T16:32:03.354Z,67.30
2023-05-09T16:34:31.953Z,67.89
2023-05-09T16:37:00.605Z,66.77
2023-05-09T16:39:28.801Z,65.78
2023-05-09T16:41:57.387Z,64.76
2023-05-09T16:44:25.958Z,65.24
2023-05-09T16:46:54.040Z,65.18
2023-05-09T16:49:22.144Z,64.15
2023-05-09T16:51:50.391Z,63.50
2023-05-09T16:54:18.545Z,63.53
2023-05-09T16:56:46.630Z,62.79
2023-05-09T16:59:14.736Z,63.74
2023-05-09T17:01:43.438Z,64.53
2023-05-09T17:04:11.557Z,63.01
2023-05-09T17:06:40.231Z,63.29
2023-05-09T17:09:08.545Z,63.17
2023-05-09T17:11:36.751Z,63.67
2023-05-09T17:14:04.837Z,63.99
2023-05-09T17:16:33.427Z,64.18
2023-05-09T17:19:02.395Z,63.49
2023-05-09T17:21:30.926Z,63.30
2023-05-09T17:23:59.085Z,63.84
2023-05-09T17:26:27.247Z,64.70
2023-05-09T17:28:55.476Z,63.89
2023-05-09T17:31:23.833Z,64.28
2023-05-09T17:33:51.997Z,64.03
2023-05-09T17:36:20.100Z,64.24
2023-05-09T17:38:48.164Z,64.88
2023-05-09T17:41:16.283Z,64.45
2023-05-09T17:43:44.510Z,64.65
2023-05-09T17:46:14.864Z,65.33
2023-05-09T17:48:43.135Z,65.41
2023-05-09T17:51:11.445Z,64.74
2023-05-09T17:53:39.640Z,64.64
2023-05-09T17:56:08.408Z,64.45
2023-05-09T17:58:36.763Z,64.66
2023-05-09T18:01:05.579Z,65.17
2023-05-09T18:03:34.100Z,65.32
2023-05-09T18:06:02.300Z,65.71
2023-05-09T18:08:30.454Z,64.38
2023-05-09T18:10:58.625Z,63.96
2023-05-09T18:13:26.935Z,65.22
2023-05-09T18:16:00.745Z,64.97
2023-05-09T18:18:29.270Z,66.12
2023-05-09T18:20:57.601Z,67.00
2023-05-09T18:23:26.180Z,66.80
2023-05-09T18:25:54.615Z,66.22
2023-05-09T18:28:26.056Z,66.61
2023-05-09T18:30:54.763Z,67.68
2023-05-09T18:33:23.532Z,67.00
2023-05-09T18:35:53.185Z,68.19
2023-05-09T18:38:21.820Z,68.19
2023-05-09T18:40:52.272Z,69.48
2023-05-09T18:43:21.671Z,68.44
2023-05-09T18:45:50.207Z,70.33
2023-05-09T18:48:18.352Z,70.18
2023-05-09T18:50:47.350Z,71.15
2023-05-09T18:53:15.562Z,69.67
2023-05-09T18:55:43.906Z,68.82
2023-05-09T18:58:12.551Z,69.21
2023-05-09T19:00:40.760Z,69.35
2023-05-09T19:03:08.926Z,68.38
2023-05-09T19:05:37.142Z,68.57
2023-05-09T19:08:05.464Z,69.45
2023-05-09T19:10:35.936Z,70.49
2023-05-09T19:13:04.744Z,71.65
2023-05-09T19:15:33.518Z,70.96
2023-05-09T19:18:02.126Z,71.74
2023-05-09T19:20:30.798Z,72.22
2023-05-09T19:22:59.354Z,72.57
2023-05-09T19:25:27.862Z,72.57
2023-05-09T19:27:56.244Z,72.47
2023-05-09T19:30:24.394Z,74.20
2023-05-09T19:32:52.808Z,73.38
2023-05-09T19:35:21.054Z,73.22
2023-05-09T19:37:49.056Z,73.15
2023-05-09T19:40:17.400Z,73.17
2023-05-09T19:42:45.720Z,73.27
2023-05-09T19:45:14.442Z,73.64
2023-05-09T19:47:42.837Z,73.09
2023-05-09T19:50:11.143Z,73.66
2023-05-09T19:52:39.347Z,72.87
2023-05-09T19:55:07.699Z,72.19
2023-05-09T19:57:35.878Z,71.35
2023-05-09T20:00:06.525Z,71.65
2023-05-09T20:02:34.961Z,71.47
2023-05-09T20:05:03.751Z,70.90
2023-05-09T20:07:32.013Z,70.25
2023-05-09T20:10:00.034Z,69.82
2023-05-09T20:12:30.068Z,69.27
2023-05-09T20:14:58.446Z,69.40
2023-05-09T20:17:26.680Z,68.23
2023-05-09T20:19:54.722Z,68.56
2023-05-09T20:22:22.887Z,68.76
2023-05-09T20:24:51.233Z,68.57
2023-05-09T20:27:19.291Z,69.15
2023-05-09T20:29:47.554Z,69.23
2023-05-09T20:32:15.812Z,69.37
2023-05-09T20:34:43.888Z,69.83
2023-05-09T20:37:12.066Z,69.79
2023-05-09T20:39:40.128Z,69.63
2023-05-09T20:42:08.198Z,70.79
2023-05-09T20:44:37.715Z,70.48
2023-05-09T20:47:06.038Z,71.01
2023-05-09T20:49:34.248Z,70.44
2023-05-09T20:52:02.326Z,71.88
2023-05-09T20:54:31.112Z,70.85
2023-05-09T20:56:59.238Z,68.56
2023-05-09T20:59:27.397Z,69.28
2023-05-09T21:01:58.261Z,69.06
2023-05-09T21:04:26.448Z,69.15
2023-05-09T21:06:54.520Z,71.51
2023-05-09T21:09:22.569Z,71.76
2023-05-09T21:11:50.691Z,71.26
2023-05-09T21:14:18.821Z,72.23
2023-05-09T21:16:47.019Z,71.28
2023-05-09T21:19:15.156Z,70.51
2023-05-09T21:21:43.266Z,70.12
2023-05-09T21:24:11.390Z,71.70
2023-05-09T21:26:39.499Z,70.24
2023-05-09T21:29:07.758Z,73.47
2023-05-09T21:31:35.913Z,73.92
2023-05-09T21:34:09.861Z,75.85
2023-05-09T21:36:38.685Z,73.63
2023-05-09T21:39:09.613Z,74.78
2023-05-09T21:41:38.614Z,76.17
2023-05-09T21:44:11.427Z,76.58
2023-05-09T21:46:39.614Z,76.82
2023-05-09T21:49:07.747Z,76.82
2023-05-09T21:51:35.749Z,76.87
2023-05-09T21:54:04.012Z,76.91
2023-05-09T21:56:32.081Z,76.45
2023-05-09T21:59:00.148Z,77.23
2023-05-09T22:01:28.352Z,77.28
2023-05-09T22:03:56.538Z,77.89
2023-05-09T22:06:24.739Z,77.00
2023-05-09T22:08:52.899Z,77.70
2023-05-09T22:11:22.291Z,78.00
2023-05-09T22:13:50.697Z,75.85
2023-05-09T22:16:18.747Z,78.45
2023-05-09T22:18:46.823Z,79.12
2023-05-09T22:21:14.983Z,75.60
2023-05-09T22:23:43.761Z,74.80
2023-05-09T22:26:11.929Z,74.48
2023-05-09T22:28:40.100Z,73.03
2023-05-09T22:31:08.222Z,72.86
2023-05-09T22:33:36.433Z,72.59
2023-05-09T22:36:04.928Z,72.55
2023-05-09T22:38:33.158Z,73.61
2023-05-09T22:41:01.199Z,74.21
2023-05-09T22:43:36.794Z,77.18
2023-05-09T22:46:07.546Z,74.99
2023-05-09T22:48:35.767Z,73.70
2023-05-09T22:51:03.895Z,74.40
2023-05-09T22:53:32.917Z,73.60
2023-05-09T22:56:00.970Z,79.02
2023-05-09T22:58:29.009Z,80.40
2023-05-09T23:00:57.200Z,80.29
2023-05-09T23:03:25.511Z,80.53
2023-05-09T23:05:53.646Z,81.62
2023-05-09T23:08:21.674Z,79.92
2023-05-09T23:10:49.744Z,79.50
2023-05-09T23:13:17.888Z,82.19
2023-05-09T23:15:47.098Z,81.89
2023-05-09T23:18:15.197Z,84.43
2023-05-09T23:20:44.646Z,79.93
2023-05-09T23:23:12.646Z,82.83
2023-05-09T23:25:40.889Z,83.59
2023-05-09T23:28:08.966Z,82.74
2023-05-09T23:30:37.119Z,82.99
2023-05-09T23:33:05.314Z,82.59
2023-05-09T23:35:33.531Z,82.15
2023-05-09T23:38:01.776Z,81.82
2023-05-09T23:40:29.901Z,80.07
2023-05-09T23:42:58.066Z,79.15
2023-05-09T23:45:26.343Z,80.92
2023-05-09T23:47:54.465Z,82.34
2023-05-09T23:50:22.806Z,82.19
2023-05-09T23:52:51.285Z,81.26
2023-05-09T23:55:19.472Z,81.32
2023-05-09T23:57:47.624Z,80.63
